createdAt,value
2023-03-06T00:02:01.073Z,13.25
2023-03-06T00:04:42.347Z,13.68
2023-03-06T00:07:22.179Z,11.68
2023-03-06T00:10:00.879Z,13.35
2023-03-06T00:12:33.976Z,9.82
2023-03-06T00:15:11.362Z,13.60
2023-03-06T00:17:39.623Z,12.98
2023-03-06T00:20:09.625Z,14.50
2023-03-06T00:22:39.736Z,11.93
2023-03-06T00:25:17.098Z,12.35
2023-03-06T00:27:59.632Z,11.82
2023-03-06T00:30:27.686Z,10.98
2023-03-06T00:32:55.571Z,14.57
2023-03-06T00:35:24.420Z,12.38
2023-03-06T00:38:03.199Z,11.63
2023-03-06T00:40:36.735Z,14.40
2023-03-06T00:43:08.575Z,13.15
2023-03-06T00:45:39.965Z,10.45
2023-03-06T00:48:15.646Z,12.68
2023-03-06T00:50:54.251Z,15.07
2023-03-06T00:53:26.992Z,12.63
2023-03-06T00:56:03.216Z,14.13
2023-03-06T00:58:38.200Z,18.00
2023-03-06T01:01:06.541Z,12.00
2023-03-06T01:03:34.476Z,14.15
2023-03-06T01:06:08.442Z,12.73
2023-03-06T01:08:49.231Z,15.55
2023-03-06T01:11:18.691Z,15.25
2023-03-06T01:13:59.291Z,13.27
2023-03-06T01:16:39.417Z,14.75
2023-03-06T01:19:09.306Z,11.23
2023-03-06T01:21:37.265Z,14.27
2023-03-06T01:24:16.378Z,12.73
2023-03-06T01:26:44.212Z,13.77
2023-03-06T01:29:23.173Z,12.55
2023-03-06T01:31:51.011Z,15.23
2023-03-06T01:34:24.291Z,13.82
2023-03-06T01:36:58.811Z,12.43
2023-03-06T01:39:31.521Z,15.88
2023-03-06T01:42:04.843Z,12.73
2023-03-06T01:44:34.340Z,22.27
2023-03-06T01:47:12.199Z,11.98
2023-03-06T01:49:53.208Z,14.45
2023-03-06T01:52:32.612Z,14.00
2023-03-06T01:55:03.727Z,12.20
2023-03-06T01:57:35.301Z,15.75
2023-03-06T02:00:12.279Z,16.35
2023-03-06T02:03:00.309Z,12.85
2023-03-06T02:05:30.596Z,14.02
2023-03-06T02:07:59.412Z,16.77
2023-03-06T02:10:27.589Z,14.82
2023-03-06T02:12:57.168Z,11.40
2023-03-06T02:15:40.526Z,13.73
2023-03-06T02:18:18.339Z,13.75
2023-03-06T02:20:50.056Z,11.32
2023-03-06T02:23:28.416Z,13.18
2023-03-06T02:26:10.271Z,13.05
2023-03-06T02:28:39.882Z,13.77
2023-03-06T02:31:12.208Z,14.73
2023-03-06T02:33:44.967Z,16.85
2023-03-06T02:36:21.797Z,13.07
2023-03-06T02:38:59.182Z,15.40
2023-03-06T02:41:47.519Z,16.92
2023-03-06T02:44:37.451Z,13.55
2023-03-06T02:47:16.725Z,14.10
2023-03-06T02:49:44.951Z,16.73
2023-03-06T02:52:18.860Z,18.02
2023-03-06T02:54:47.686Z,13.55
2023-03-06T02:57:37.332Z,15.40
2023-03-06T03:00:08.792Z,14.95
2023-03-06T03:02:38.575Z,13.85
2023-03-06T03:05:14.879Z,12.40
2023-03-06T03:07:50.994Z,12.63
2023-03-06T03:10:23.610Z,13.77
2023-03-06T03:12:54.161Z,14.82
2023-03-06T03:15:22.265Z,16.08
2023-03-06T03:17:57.461Z,15.13
2023-03-06T03:20:25.425Z,12.63
2023-03-06T03:22:55.573Z,12.13
2023-03-06T03:25:25.043Z,13.25
2023-03-06T03:27:57.107Z,13.27
2023-03-06T03:30:33.150Z,15.40
2023-03-06T03:33:07.165Z,14.68
2023-03-06T03:35:35.796Z,14.10
2023-03-06T03:38:04.023Z,15.10
2023-03-06T03:40:32.181Z,15.20
2023-03-06T03:43:01.847Z,17.90
2023-03-06T03:45:29.764Z,15.52
2023-03-06T03:48:01.256Z,15.05
2023-03-06T03:50:37.224Z,16.88
2023-03-06T03:53:17.488Z,17.08
2023-03-06T03:55:49.700Z,15.43
2023-03-06T03:58:22.204Z,15.65
2023-03-06T04:00:56.308Z,15.63
2023-03-06T04:03:33.814Z,18.13
2023-03-06T04:06:02.023Z,18.55
2023-03-06T04:08:42.308Z,15.07
2023-03-06T04:11:13.775Z,18.00
2023-03-06T04:13:47.670Z,16.23
2023-03-06T04:16:21.381Z,16.05
2023-03-06T04:18:55.467Z,14.25
2023-03-06T04:21:23.741Z,18.70
2023-03-06T04:23:57.579Z,18.42
2023-03-06T04:26:36.438Z,19.25
2023-03-06T04:29:23.736Z,16.10
2023-03-06T04:31:56.089Z,17.63
2023-03-06T04:34:35.227Z,17.30
2023-03-06T04:37:06.127Z,19.00
2023-03-06T04:39:46.868Z,17.52
2023-03-06T04:42:14.791Z,18.98
2023-03-06T04:44:53.959Z,21.08
2023-03-06T04:47:27.325Z,18.77
2023-03-06T04:50:04.638Z,19.48
2023-03-06T04:52:37.081Z,16.58
2023-03-06T04:55:20.903Z,23.67
2023-03-06T04:58:01.530Z,17.27
2023-03-06T05:00:40.848Z,21.17
2023-03-06T05:03:10.097Z,19.98
2023-03-06T05:05:37.994Z,19.42
2023-03-06T05:08:16.614Z,18.02
2023-03-06T05:10:47.151Z,19.48
2023-03-06T05:13:19.803Z,19.17
2023-03-06T05:15:54.494Z,20.40
2023-03-06T05:18:22.865Z,20.55
2023-03-06T05:21:00.279Z,21.90
2023-03-06T05:23:28.164Z,17.05
2023-03-06T05:25:58.995Z,18.27
2023-03-06T05:28:30.670Z,24.60
2023-03-06T05:31:07.985Z,18.48
2023-03-06T05:33:53.182Z,22.70
2023-03-06T05:36:26.446Z,20.55
2023-03-06T05:38:58.566Z,21.98
2023-03-06T05:41:29.366Z,20.98
2023-03-06T05:44:02.282Z,19.65
2023-03-06T05:46:40.688Z,19.85
2023-03-06T05:49:20.609Z,21.45
2023-03-06T05:52:05.216Z,27.42
2023-03-06T05:54:39.441Z,21.67
2023-03-06T05:57:16.636Z,21.65
2023-03-06T05:59:48.136Z,23.40
2023-03-06T06:02:24.787Z,21.85
2023-03-06T06:04:53.300Z,23.20
2023-03-06T06:07:27.447Z,24.77
2023-03-06T06:10:03.647Z,25.90
2023-03-06T06:12:32.673Z,24.40
2023-03-06T06:15:10.873Z,22.85
2023-03-06T06:17:40.047Z,21.70
2023-03-06T06:20:13.200Z,22.50
2023-03-06T06:22:41.255Z,23.92
2023-03-06T06:25:09.702Z,23.15
2023-03-06T06:27:39.537Z,23.50
2023-03-06T06:30:18.510Z,19.50
2023-03-06T06:33:04.195Z,29.17
2023-03-06T06:35:39.736Z,23.00
2023-03-06T06:38:13.933Z,25.95
2023-03-06T06:40:41.882Z,23.20
2023-03-06T06:43:10.629Z,24.80
2023-03-06T06:45:49.597Z,24.65
2023-03-06T06:48:39.940Z,28.40
2023-03-06T06:51:19.307Z,24.67
2023-03-06T06:53:49.581Z,24.67
2023-03-06T06:56:22.821Z,25.25
2023-03-06T06:58:52.824Z,22.60
2023-03-06T07:01:25.155Z,24.38
2023-03-06T07:03:54.367Z,24.35
2023-03-06T07:06:31.086Z,23.58
2023-03-06T07:09:05.877Z,20.80
2023-03-06T07:11:33.826Z,20.98
2023-03-06T07:14:14.442Z,26.02
2023-03-06T07:16:52.306Z,21.35
2023-03-06T07:19:29.459Z,21.83
2023-03-06T07:22:02.102Z,24.52
2023-03-06T07:24:42.168Z,20.88
2023-03-06T07:27:27.046Z,22.58
2023-03-06T07:30:00.457Z,22.45
2023-03-06T07:32:32.174Z,20.52
2023-03-06T07:35:19.438Z,24.67
2023-03-06T07:37:55.904Z,18.80
2023-03-06T07:40:29.871Z,23.20
2023-03-06T07:43:19.022Z,21.55
2023-03-06T07:46:09.878Z,21.27
2023-03-06T07:48:38.431Z,22.35
2023-03-06T07:51:14.742Z,19.45
2023-03-06T07:53:46.594Z,22.63
2023-03-06T07:56:14.922Z,21.17
2023-03-06T07:58:49.366Z,22.05
2023-03-06T08:01:27.050Z,23.15
2023-03-06T08:04:12.559Z,22.20
2023-03-06T08:06:45.638Z,24.50
2023-03-06T08:09:25.893Z,21.70
2023-03-06T08:12:03.317Z,21.33
2023-03-06T08:14:42.586Z,22.02
2023-03-06T08:17:13.140Z,22.25
2023-03-06T08:19:54.999Z,22.00
2023-03-06T08:22:33.340Z,19.88
2023-03-06T08:25:03.741Z,23.90
2023-03-06T08:27:34.648Z,21.92
2023-03-06T08:30:12.349Z,22.88
2023-03-06T08:32:51.020Z,25.48
2023-03-06T08:35:18.907Z,25.75
2023-03-06T08:38:01.048Z,22.30
2023-03-06T08:40:33.992Z,24.85
2023-03-06T08:43:14.315Z,23.13
2023-03-06T08:45:45.343Z,28.35
2023-03-06T08:48:23.373Z,24.00
2023-03-06T08:50:55.189Z,23.48
2023-03-06T08:53:40.495Z,25.73
2023-03-06T08:56:18.827Z,23.67
2023-03-06T08:59:00.354Z,24.92
2023-03-06T09:01:37.288Z,26.98
2023-03-06T09:04:12.994Z,21.15
2023-03-06T09:06:54.423Z,25.08
2023-03-06T09:09:26.076Z,24.75
2023-03-06T09:11:53.917Z,20.85
2023-03-06T09:14:21.732Z,23.77
2023-03-06T09:16:49.625Z,24.05
2023-03-06T09:19:23.432Z,24.35
2023-03-06T09:21:57.333Z,21.70
2023-03-06T09:24:26.510Z,21.80
2023-03-06T09:27:00.341Z,29.42
2023-03-06T09:29:28.212Z,27.30
2023-03-06T09:31:56.057Z,23.38
2023-03-06T09:34:35.542Z,23.98
2023-03-06T09:37:12.181Z,21.80
2023-03-06T09:39:47.494Z,24.45
2023-03-06T09:42:21.728Z,25.33
2023-03-06T09:44:57.776Z,24.58
2023-03-06T09:47:41.726Z,23.20
2023-03-06T09:50:52.536Z,22.15
2023-03-06T09:53:48.744Z,22.75
2023-03-06T09:56:29.272Z,24.15
2023-03-06T09:59:19.607Z,25.20
2023-03-06T10:01:56.796Z,24.27
2023-03-06T10:04:48.369Z,23.10
2023-03-06T10:07:29.474Z,24.38
2023-03-06T10:10:00.716Z,24.40
2023-03-06T10:12:44.748Z,23.35
2023-03-06T10:15:18.978Z,24.55
2023-03-06T10:17:49.764Z,29.23
2023-03-06T10:20:28.731Z,26.75
2023-03-06T10:23:26.478Z,23.33
2023-03-06T10:26:00.965Z,23.35
2023-03-06T10:28:46.758Z,26.55
2023-03-06T10:31:21.565Z,22.90
2023-03-06T10:33:55.334Z,26.63
2023-03-06T10:36:36.087Z,22.05
2023-03-06T10:39:13.771Z,27.95
2023-03-06T10:41:46.253Z,22.27
2023-03-06T10:44:27.493Z,23.08
2023-03-06T10:47:07.264Z,24.25
2023-03-06T10:49:41.294Z,21.50
2023-03-06T10:52:27.665Z,21.25
2023-03-06T10:55:26.794Z,24.42
2023-03-06T10:58:04.849Z,22.50
2023-03-06T11:00:36.079Z,23.27
2023-03-06T11:03:19.143Z,22.13
2023-03-06T11:06:12.920Z,23.88
2023-03-06T11:08:44.528Z,24.40
2023-03-06T11:11:37.887Z,22.13
2023-03-06T11:14:20.845Z,26.48
2023-03-06T11:16:57.465Z,22.08
2023-03-06T11:19:35.182Z,20.55
2023-03-06T11:22:10.057Z,27.95
2023-03-06T11:24:46.157Z,23.75
2023-03-06T11:27:39.400Z,29.70
2023-03-06T11:30:23.285Z,22.50
2023-03-06T11:33:05.690Z,25.48
2023-03-06T11:35:46.470Z,20.88
2023-03-06T11:38:26.232Z,20.15
2023-03-06T11:40:55.612Z,19.67
2023-03-06T11:43:27.948Z,19.05
2023-03-06T11:46:07.689Z,23.52
2023-03-06T11:48:51.742Z,22.45
2023-03-06T11:51:23.625Z,23.67
2023-03-06T11:53:51.717Z,26.10
2023-03-06T11:56:31.187Z,22.02
2023-03-06T11:59:28.349Z,20.52
2023-03-06T12:02:10.022Z,20.92
2023-03-06T12:04:56.611Z,18.88
2023-03-06T12:07:39.182Z,19.63
2023-03-06T12:10:28.250Z,20.00
2023-03-06T12:13:20.229Z,21.73
2023-03-06T12:16:19.105Z,21.80
2023-03-06T12:18:54.793Z,19.75
2023-03-06T12:21:32.138Z,20.75
2023-03-06T12:24:12.302Z,19.20
2023-03-06T12:27:02.780Z,19.80
2023-03-06T12:30:01.006Z,19.85
2023-03-06T12:32:43.880Z,20.88
2023-03-06T12:35:39.111Z,17.42
2023-03-06T12:38:34.360Z,16.65
2023-03-06T12:41:16.375Z,19.45
2023-03-06T12:44:11.078Z,18.58
2023-03-06T12:46:44.258Z,16.13
2023-03-06T12:49:23.040Z,18.77
2023-03-06T12:51:59.534Z,21.48
2023-03-06T12:54:36.145Z,23.33
2023-03-06T12:57:06.696Z,18.80
2023-03-06T12:59:44.387Z,20.37
2023-03-06T13:03:00.821Z,17.85
2023-03-06T13:05:34.884Z,18.17
2023-03-06T13:08:24.070Z,20.63
2023-03-06T13:11:37.542Z,19.55
2023-03-06T13:14:28.675Z,17.45
2023-03-06T13:17:16.511Z,17.15
2023-03-06T13:19:44.595Z,19.40
2023-03-06T13:22:23.503Z,21.37
2023-03-06T13:25:29.683Z,17.70
2023-03-06T13:28:05.716Z,18.20
2023-03-06T13:30:45.678Z,20.70
2023-03-06T13:33:51.015Z,18.50
2023-03-06T13:36:27.773Z,17.87
2023-03-06T13:39:09.490Z,18.10
2023-03-06T13:41:56.435Z,19.02
2023-03-06T13:44:42.826Z,20.42
2023-03-06T13:47:31.306Z,19.33
2023-03-06T13:49:59.691Z,23.13
2023-03-06T13:52:40.694Z,17.40
2023-03-06T13:55:19.603Z,17.90
2023-03-06T13:58:10.483Z,17.50
2023-03-06T14:00:57.277Z,19.75
2023-03-06T14:03:47.558Z,16.93
2023-03-06T14:06:51.471Z,18.55
2023-03-06T14:09:28.995Z,20.20
2023-03-06T14:12:00.584Z,18.77
2023-03-06T14:14:35.665Z,19.25
2023-03-06T14:17:06.273Z,21.02
2023-03-06T14:19:38.949Z,18.80
2023-03-06T14:22:08.135Z,17.80
2023-03-06T14:24:39.921Z,19.83
2023-03-06T14:27:09.117Z,19.40
2023-03-06T14:29:36.896Z,17.77
2023-03-06T14:32:12.111Z,18.90
2023-03-06T14:34:41.984Z,17.25
2023-03-06T14:37:21.440Z,17.37
2023-03-06T14:39:49.966Z,17.53
2023-03-06T14:42:20.419Z,23.13
2023-03-06T14:44:49.774Z,18.20
2023-03-06T14:47:28.263Z,19.67
2023-03-06T14:50:23.121Z,19.63
2023-03-06T14:52:53.225Z,18.57
2023-03-06T14:55:23.599Z,18.58
2023-03-06T14:57:55.913Z,22.00
2023-03-06T15:00:27.862Z,23.47
2023-03-06T15:02:57.860Z,22.10
2023-03-06T15:05:28.869Z,18.83
2023-03-06T15:08:00.347Z,16.80
2023-03-06T15:10:30.477Z,20.30
2023-03-06T15:13:09.236Z,18.20
2023-03-06T15:15:37.404Z,19.43
2023-03-06T15:18:28.643Z,19.73
2023-03-06T15:21:07.709Z,17.98
2023-03-06T15:23:38.569Z,16.85
2023-03-06T15:26:23.752Z,17.10
2023-03-06T15:29:12.615Z,17.55
2023-03-06T15:31:42.026Z,19.30
2023-03-06T15:34:25.699Z,21.27
2023-03-06T15:36:56.130Z,16.05
2023-03-06T15:39:38.033Z,18.03
2023-03-06T15:42:18.079Z,19.02
2023-03-06T15:44:49.972Z,19.17
2023-03-06T15:47:18.177Z,18.70
2023-03-06T15:49:51.726Z,19.95
2023-03-06T15:52:20.719Z,18.85
2023-03-06T15:54:48.666Z,17.90
2023-03-06T15:57:27.484Z,19.90
2023-03-06T16:00:21.688Z,16.08
2023-03-06T16:03:00.116Z,17.58
2023-03-06T16:05:30.040Z,18.17
2023-03-06T16:07:58.152Z,18.35
2023-03-06T16:10:28.808Z,15.93
2023-03-06T16:13:02.241Z,16.65
2023-03-06T16:15:33.026Z,13.48
2023-03-06T16:18:01.321Z,16.73
2023-03-06T16:20:32.617Z,18.15
2023-03-06T16:23:00.567Z,17.58
2023-03-06T16:25:29.308Z,16.20
2023-03-06T16:27:58.942Z,14.88
2023-03-06T16:30:28.504Z,16.85
2023-03-06T16:32:57.879Z,14.55
2023-03-06T16:35:25.992Z,15.63
2023-03-06T16:37:55.438Z,15.63
2023-03-06T16:40:25.711Z,15.02
2023-03-06T16:42:55.287Z,14.07
2023-03-06T16:45:24.349Z,13.52
2023-03-06T16:47:52.624Z,15.25
2023-03-06T16:50:24.534Z,15.70
2023-03-06T16:52:55.733Z,17.10
2023-03-06T16:55:24.807Z,16.92
2023-03-06T16:57:53.069Z,15.07
2023-03-06T17:00:22.276Z,17.42
2023-03-06T17:02:50.888Z,14.77
2023-03-06T17:05:25.331Z,18.38
2023-03-06T17:08:04.084Z,15.07
2023-03-06T17:10:32.536Z,17.33
2023-03-06T17:13:00.486Z,13.30
2023-03-06T17:15:36.213Z,18.52
2023-03-06T17:18:10.436Z,16.63
2023-03-06T17:20:54.679Z,16.20
2023-03-06T17:23:30.995Z,17.25
2023-03-06T17:26:12.964Z,16.48
2023-03-06T17:28:44.265Z,17.08
2023-03-06T17:31:14.210Z,17.55
2023-03-06T17:33:52.170Z,17.88
2023-03-06T17:36:23.821Z,16.67
2023-03-06T17:39:10.164Z,16.40
2023-03-06T17:41:46.192Z,17.98
2023-03-06T17:44:25.181Z,17.40
2023-03-06T17:46:53.212Z,15.05
2023-03-06T17:49:23.194Z,18.30
2023-03-06T17:51:51.114Z,17.48
2023-03-06T17:54:34.026Z,18.48
2023-03-06T17:57:03.598Z,15.50
2023-03-06T17:59:33.848Z,15.40
2023-03-06T18:02:02.540Z,20.77
2023-03-06T18:04:30.684Z,18.90
2023-03-06T18:06:58.531Z,20.05
2023-03-06T18:09:39.268Z,17.27
2023-03-06T18:12:17.307Z,17.73
2023-03-06T18:14:45.232Z,19.42
2023-03-06T18:17:18.561Z,19.40
2023-03-06T18:19:59.004Z,18.70
2023-03-06T18:22:26.833Z,18.38
2023-03-06T18:24:56.130Z,19.67
2023-03-06T18:27:30.239Z,18.30
2023-03-06T18:29:59.777Z,17.95
2023-03-06T18:32:29.303Z,19.20
2023-03-06T18:35:03.061Z,20.13
2023-03-06T18:37:30.951Z,21.20
2023-03-06T18:40:00.148Z,21.33
2023-03-06T18:42:35.273Z,23.95
2023-03-06T18:45:03.289Z,21.98
2023-03-06T18:47:31.202Z,22.48
2023-03-06T18:50:00.048Z,21.40
2023-03-06T18:52:32.423Z,18.20
2023-03-06T18:55:07.897Z,20.58
2023-03-06T18:57:35.765Z,21.15
2023-03-06T19:00:04.657Z,20.50
2023-03-06T19:02:44.686Z,22.95
2023-03-06T19:05:12.705Z,25.75
2023-03-06T19:07:46.336Z,22.85
2023-03-06T19:10:31.073Z,20.67
2023-03-06T19:13:02.573Z,24.67
2023-03-06T19:15:42.353Z,22.15
2023-03-06T19:18:14.612Z,22.63
2023-03-06T19:20:42.824Z,23.13
2023-03-06T19:23:11.401Z,21.30
2023-03-06T19:25:58.236Z,21.80
2023-03-06T19:28:28.432Z,29.65
2023-03-06T19:30:57.012Z,20.55
2023-03-06T19:33:32.760Z,21.70
2023-03-06T19:36:13.032Z,21.92
2023-03-06T19:38:43.577Z,20.52
2023-03-06T19:41:16.670Z,22.27
2023-03-06T19:43:44.729Z,26.00
2023-03-06T19:46:13.717Z,22.45
2023-03-06T19:48:42.399Z,22.30
2023-03-06T19:51:16.285Z,23.33
2023-03-06T19:53:44.969Z,22.58
2023-03-06T19:56:17.186Z,21.55
2023-03-06T19:58:48.653Z,24.40
2023-03-06T20:01:23.548Z,23.30
2023-03-06T20:03:56.112Z,21.58
2023-03-06T20:06:28.925Z,22.15
2023-03-06T20:08:58.380Z,24.52
2023-03-06T20:11:38.481Z,22.67
2023-03-06T20:14:08.646Z,22.98
2023-03-06T20:16:37.182Z,21.20
2023-03-06T20:19:10.655Z,22.27
2023-03-06T20:21:49.365Z,22.02
2023-03-06T20:24:18.792Z,22.17
2023-03-06T20:26:51.085Z,22.70
2023-03-06T20:29:29.497Z,23.30
2023-03-06T20:32:04.853Z,25.17
2023-03-06T20:34:41.173Z,23.55
2023-03-06T20:37:11.707Z,22.13
2023-03-06T20:39:45.933Z,24.38
2023-03-06T20:42:21.465Z,26.05
2023-03-06T20:44:49.280Z,21.85
2023-03-06T20:47:17.228Z,25.60
2023-03-06T20:49:45.016Z,23.08
2023-03-06T20:52:12.837Z,23.88
2023-03-06T20:54:43.449Z,25.23
2023-03-06T20:57:15.462Z,24.20
2023-03-06T21:00:03.013Z,26.80
2023-03-06T21:02:34.735Z,23.75
2023-03-06T21:05:09.920Z,26.35
2023-03-06T21:07:47.981Z,26.05
2023-03-06T21:10:19.854Z,25.58
2023-03-06T21:12:47.964Z,22.63
2023-03-06T21:15:30.200Z,25.40
2023-03-06T21:18:03.927Z,23.67
2023-03-06T21:20:35.067Z,25.42
2023-03-06T21:23:12.282Z,26.38
2023-03-06T21:26:01.447Z,24.17
2023-03-06T21:28:41.656Z,27.35
2023-03-06T21:31:32.263Z,24.92
2023-03-06T21:34:07.265Z,22.55
2023-03-06T21:36:39.986Z,21.23
2023-03-06T21:39:25.356Z,20.92
2023-03-06T21:42:02.368Z,25.20
2023-03-06T21:44:41.433Z,25.67
2023-03-06T21:47:24.973Z,22.10
2023-03-06T21:50:02.692Z,21.33
2023-03-06T21:52:35.931Z,22.27
2023-03-06T21:55:13.561Z,19.45
2023-03-06T21:57:49.582Z,22.77
2023-03-06T22:00:28.901Z,26.50
2023-03-06T22:03:04.628Z,24.23
2023-03-06T22:05:37.108Z,22.60
2023-03-06T22:08:13.644Z,21.33
2023-03-06T22:10:59.238Z,24.88
2023-03-06T22:13:29.947Z,26.83
2023-03-06T22:16:12.942Z,25.42
2023-03-06T22:18:50.929Z,23.17
2023-03-06T22:21:27.018Z,20.13
2023-03-06T22:24:00.578Z,25.27
2023-03-06T22:26:34.956Z,28.88
2023-03-06T22:29:17.903Z,22.83
2023-03-06T22:31:47.626Z,22.45
2023-03-06T22:34:25.819Z,24.73
2023-03-06T22:37:00.178Z,25.58
2023-03-06T22:39:31.469Z,26.60
2023-03-06T22:42:06.700Z,20.67
2023-03-06T22:44:41.670Z,24.48
2023-03-06T22:47:19.409Z,23.35
2023-03-06T22:49:53.589Z,26.48
2023-03-06T22:52:33.537Z,24.83
2023-03-06T22:55:04.863Z,24.52
2023-03-06T22:57:39.158Z,21.98
2023-03-06T23:00:13.067Z,23.90
2023-03-06T23:02:51.229Z,27.42
2023-03-06T23:05:29.155Z,23.52
2023-03-06T23:08:00.598Z,27.30
2023-03-06T23:10:38.825Z,26.60
2023-03-06T23:13:34.956Z,24.85
2023-03-06T23:16:24.703Z,24.60
2023-03-06T23:19:14.631Z,27.27
2023-03-06T23:22:14.595Z,22.73
2023-03-06T23:25:10.907Z,31.45
2023-03-06T23:27:42.131Z,25.08
2023-03-06T23:30:14.262Z,29.48
2023-03-06T23:32:46.742Z,25.73
2023-03-06T23:35:20.217Z,24.60
2023-03-06T23:37:58.963Z,24.08
2023-03-06T23:40:31.101Z,26.50
2023-03-06T23:43:08.172Z,27.48
2023-03-06T23:45:44.158Z,26.52
2023-03-06T23:48:15.297Z,24.65
2023-03-06T23:50:50.150Z,23.88
2023-03-06T23:53:28.435Z,21.63
2023-03-06T23:56:07.329Z,26.92
2023-03-06T23:58:39.248Z,25.92
